createdAt,value
2019-03-25T00:01:48.370Z,14.63
2019-03-25T00:04:47.898Z,13.47
2019-03-25T00:07:47.208Z,13.07
2019-03-25T00:10:46.546Z,13.23
2019-03-25T00:13:45.635Z,13.97
2019-03-25T00:16:45.864Z,10.13
2019-03-25T00:19:45.954Z,13.47
2019-03-25T00:22:45.870Z,15.67
2019-03-25T00:25:45.008Z,11.70
2019-03-25T00:28:44.610Z,12.37
2019-03-25T00:31:44.043Z,15.20
2019-03-25T00:34:43.339Z,14.40
2019-03-25T00:37:42.495Z,11.80
2019-03-25T00:40:42.423Z,14.53
2019-03-25T00:43:41.741Z,13.63
2019-03-25T00:46:41.155Z,11.23
2019-03-25T00:49:40.282Z,12.33
2019-03-25T00:52:39.761Z,11.60
2019-03-25T00:55:38.927Z,14.07
2019-03-25T00:58:38.268Z,12.30
2019-03-25T01:01:37.609Z,10.90
2019-03-25T01:04:36.835Z,11.87
2019-03-25T01:07:36.312Z,14.77
2019-03-25T01:10:35.474Z,12.17
2019-03-25T01:13:34.986Z,12.60
2019-03-25T01:16:34.830Z,12.43
2019-03-25T01:19:34.003Z,12.07
2019-03-25T01:22:33.326Z,12.67
2019-03-25T01:25:32.563Z,11.90
2019-03-25T01:28:32.240Z,12.30
2019-03-25T01:31:31.531Z,11.13
2019-03-25T01:34:30.995Z,14.77
2019-03-25T01:37:30.068Z,9.47
2019-03-25T01:40:29.474Z,11.70
2019-03-25T01:43:28.754Z,10.70
2019-03-25T01:46:28.266Z,11.73
2019-03-25T01:49:27.582Z,13.00
2019-03-25T01:52:26.929Z,10.17
2019-03-25T01:55:30.389Z,10.97
2019-03-25T01:58:30.404Z,15.70
2019-03-25T02:01:29.585Z,13.67
2019-03-25T02:04:29.085Z,12.23
2019-03-25T02:07:28.174Z,11.67
2019-03-25T02:10:27.474Z,12.50
2019-03-25T02:13:26.839Z,12.73
2019-03-25T02:16:26.145Z,16.07
2019-03-25T02:19:25.439Z,10.03
2019-03-25T02:22:24.709Z,13.77
2019-03-25T02:25:25.701Z,19.13
2019-03-25T02:28:25.998Z,22.73
2019-03-25T02:31:25.260Z,11.00
2019-03-25T02:34:24.623Z,17.40
2019-03-25T02:37:23.790Z,16.33
2019-03-25T02:40:23.345Z,15.80
2019-03-25T02:43:23.624Z,16.87
2019-03-25T02:46:23.724Z,22.50
2019-03-25T02:49:23.081Z,22.27
2019-03-25T02:52:22.339Z,20.50
2019-03-25T02:55:21.848Z,12.90
2019-03-25T02:58:21.357Z,14.20
2019-03-25T03:01:20.776Z,13.90
2019-03-25T03:04:20.744Z,17.97
2019-03-25T03:07:07.295Z,15.00
2019-03-25T03:10:07.231Z,14.43
2019-03-25T03:13:06.508Z,20.57
2019-03-25T03:15:56.419Z,16.47
2019-03-25T03:18:54.118Z,18.50
2019-03-25T03:21:53.477Z,20.90
2019-03-25T03:24:52.880Z,18.47
2019-03-25T03:27:52.882Z,19.67
2019-03-25T03:30:52.298Z,15.90
2019-03-25T03:33:51.692Z,16.87
2019-03-25T03:36:50.870Z,15.67
2019-03-25T03:39:50.172Z,16.43
2019-03-25T03:42:49.585Z,18.47
2019-03-25T03:45:49.031Z,19.37
2019-03-25T03:48:48.146Z,18.87
2019-03-25T03:51:47.341Z,19.13
2019-03-25T03:54:46.764Z,16.17
2019-03-25T03:57:46.117Z,17.63
2019-03-25T04:00:45.548Z,14.27
2019-03-25T04:03:45.757Z,12.37
2019-03-25T04:06:45.175Z,20.37
2019-03-25T04:09:44.493Z,18.40
2019-03-25T04:12:44.621Z,17.93
2019-03-25T04:15:44.069Z,15.77
2019-03-25T04:18:43.294Z,18.70
2019-03-25T04:21:42.643Z,18.37
2019-03-25T04:24:41.919Z,13.73
2019-03-25T04:27:41.228Z,17.73
2019-03-25T04:30:40.542Z,13.70
2019-03-25T04:33:39.884Z,15.53
2019-03-25T04:36:39.093Z,14.70
2019-03-25T04:39:38.339Z,11.63
2019-03-25T04:42:37.634Z,10.73
2019-03-25T04:45:36.988Z,10.57
2019-03-25T04:48:36.413Z,7.40
2019-03-25T04:51:35.680Z,7.50
2019-03-25T04:54:39.262Z,8.00
2019-03-25T04:57:38.349Z,10.43
2019-03-25T05:00:37.758Z,7.83
2019-03-25T05:03:37.408Z,9.00
2019-03-25T05:06:37.445Z,6.57
2019-03-25T05:09:40.657Z,7.93
2019-03-25T05:12:39.923Z,8.80
2019-03-25T05:15:39.449Z,9.93
2019-03-25T05:18:38.554Z,10.53
2019-03-25T05:21:28.251Z,7.57
2019-03-25T05:24:28.298Z,9.13
2019-03-25T05:27:27.573Z,6.60
2019-03-25T05:30:26.928Z,6.53
2019-03-25T05:33:26.324Z,8.57
2019-03-25T05:36:26.048Z,4.10
2019-03-25T05:39:26.045Z,6.50
2019-03-25T05:42:25.489Z,6.73
2019-03-25T05:45:24.639Z,7.47
2019-03-25T05:48:24.094Z,10.47
2019-03-25T05:51:23.545Z,9.47
2019-03-25T05:54:22.690Z,8.70
2019-03-25T05:57:25.900Z,6.53
2019-03-25T06:00:27.095Z,8.03
2019-03-25T06:03:26.342Z,9.00
2019-03-25T06:06:25.523Z,7.03
2019-03-25T06:09:24.875Z,9.37
2019-03-25T06:12:24.678Z,9.40
2019-03-25T06:15:24.058Z,10.07
2019-03-25T06:18:23.163Z,6.80
2019-03-25T06:21:22.428Z,8.17
2019-03-25T06:24:21.492Z,5.53
2019-03-25T06:27:20.733Z,7.53
2019-03-25T06:30:21.185Z,5.10
2019-03-25T06:33:24.499Z,6.40
2019-03-25T06:36:24.109Z,4.43
2019-03-25T06:39:23.948Z,6.50
2019-03-25T06:42:23.207Z,7.53
2019-03-25T06:45:22.706Z,4.27
2019-03-25T06:48:21.788Z,5.10
2019-03-25T06:51:21.153Z,5.07
2019-03-25T06:54:20.518Z,6.23
2019-03-25T06:57:25.558Z,5.80
2019-03-25T07:00:21.133Z,4.13
2019-03-25T07:03:22.129Z,4.57
2019-03-25T07:06:21.358Z,8.50
2019-03-25T07:09:24.570Z,5.30
2019-03-25T07:12:23.923Z,6.20
2019-03-25T07:15:23.296Z,5.83
2019-03-25T07:18:22.500Z,5.63
2019-03-25T07:21:21.842Z,4.33
2019-03-25T07:24:20.938Z,7.93
2019-03-25T07:27:24.358Z,7.63
2019-03-25T07:30:23.749Z,7.30
2019-03-25T07:33:26.358Z,5.57
2019-03-25T07:36:26.009Z,7.50
2019-03-25T07:39:26.354Z,5.67
2019-03-25T07:42:29.884Z,7.70
2019-03-25T07:45:29.223Z,5.43
2019-03-25T07:48:28.714Z,6.87
2019-03-25T07:51:28.164Z,7.90
2019-03-25T07:54:27.284Z,6.87
2019-03-25T07:57:30.643Z,4.60
2019-03-25T08:00:29.997Z,6.10
2019-03-25T08:03:29.137Z,7.10
2019-03-25T08:06:32.583Z,8.80
2019-03-25T08:09:31.809Z,8.60
2019-03-25T08:12:31.148Z,6.43
2019-03-25T08:15:30.559Z,8.77
2019-03-25T08:18:29.809Z,5.83
2019-03-25T08:21:29.228Z,6.40
2019-03-25T08:24:32.567Z,11.03
2019-03-25T08:27:31.739Z,11.07
2019-03-25T08:30:31.007Z,9.83
2019-03-25T08:33:34.296Z,7.40
2019-03-25T08:36:34.287Z,8.33
2019-03-25T08:39:33.630Z,8.87
2019-03-25T08:42:32.864Z,9.77
2019-03-25T08:45:32.458Z,10.60
2019-03-25T08:48:34.373Z,14.40
2019-03-25T08:51:33.648Z,8.67
2019-03-25T08:54:37.999Z,10.87
2019-03-25T08:57:37.681Z,14.30
2019-03-25T09:00:36.857Z,19.27
2019-03-25T09:03:36.218Z,15.60
2019-03-25T09:06:39.264Z,16.50
2019-03-25T09:09:38.502Z,11.07
2019-03-25T09:12:41.843Z,15.03
2019-03-25T09:15:42.029Z,12.70
2019-03-25T09:18:41.547Z,16.97
2019-03-25T09:21:41.913Z,11.77
2019-03-25T09:24:41.103Z,8.20
2019-03-25T09:27:27.382Z,9.70
2019-03-25T09:30:27.439Z,10.07
2019-03-25T09:33:26.983Z,7.17
2019-03-25T09:36:30.058Z,9.77
2019-03-25T09:42:19.438Z,6.60
2019-03-25T09:45:18.719Z,9.07
2019-03-25T09:48:18.005Z,9.23
2019-03-25T09:51:17.260Z,8.57
2019-03-25T09:54:16.738Z,9.37
2019-03-25T09:57:16.083Z,4.97
2019-03-25T10:00:15.547Z,6.67
2019-03-25T10:03:14.946Z,7.63
2019-03-25T10:06:14.256Z,6.53
2019-03-25T10:09:13.547Z,11.77
2019-03-25T10:12:13.007Z,4.77
2019-03-25T10:15:12.081Z,5.07
2019-03-25T10:18:11.457Z,6.03
2019-03-25T10:21:10.834Z,4.67
2019-03-25T10:24:10.955Z,4.07
2019-03-25T10:27:11.197Z,5.70
2019-03-25T10:30:11.368Z,7.93
2019-03-25T10:33:10.706Z,4.60
2019-03-25T10:36:10.740Z,7.33
2019-03-25T10:39:09.963Z,6.70
2019-03-25T10:42:09.398Z,6.30
2019-03-25T10:45:09.494Z,6.37
2019-03-25T10:48:08.522Z,6.77
2019-03-25T10:51:07.988Z,4.43
2019-03-25T10:54:07.056Z,7.17
2019-03-25T10:57:06.220Z,3.57
2019-03-25T11:00:05.252Z,4.20
2019-03-25T11:03:04.298Z,4.67
2019-03-25T11:06:03.519Z,3.50
2019-03-25T11:09:03.147Z,3.10
2019-03-25T11:12:02.776Z,1.97
2019-03-25T11:15:02.212Z,3.97
2019-03-25T11:18:01.370Z,4.90
2019-03-25T11:21:00.811Z,3.37
2019-03-25T11:24:00.413Z,2.87
2019-03-25T11:26:59.842Z,2.47
2019-03-25T11:29:58.871Z,4.20
2019-03-25T11:33:01.558Z,6.37
2019-03-25T11:36:02.777Z,5.80
2019-03-25T11:39:02.696Z,4.63
2019-03-25T11:42:05.935Z,6.07
2019-03-25T11:45:05.206Z,4.77
2019-03-25T11:48:04.443Z,4.10
2019-03-25T11:51:04.000Z,3.03
2019-03-25T11:54:03.247Z,2.83
2019-03-25T11:57:03.006Z,1.87
2019-03-25T12:00:02.322Z,3.83
2019-03-25T12:03:01.658Z,4.83
2019-03-25T12:06:01.162Z,2.77
2019-03-25T12:09:00.565Z,5.43
2019-03-25T12:11:59.941Z,7.20
2019-03-25T12:15:03.252Z,7.13
2019-03-25T12:18:02.656Z,5.63
2019-03-25T12:21:02.260Z,4.40
2019-03-25T12:24:01.786Z,3.97
2019-03-25T12:27:01.166Z,5.03
2019-03-25T12:30:00.365Z,3.27
2019-03-25T12:33:04.239Z,4.93
2019-03-25T12:36:02.354Z,4.27
2019-03-25T12:39:02.491Z,2.67
2019-03-25T12:42:01.572Z,5.00
2019-03-25T12:45:00.748Z,2.57
2019-03-25T12:48:04.146Z,5.67
2019-03-25T12:51:03.666Z,7.77
2019-03-25T12:54:03.089Z,5.47
2019-03-25T12:57:02.381Z,6.17
2019-03-25T13:00:00.891Z,7.17
2019-03-25T13:03:00.323Z,6.97
2019-03-25T13:05:59.616Z,7.70
2019-03-25T13:09:00.157Z,7.47
2019-03-25T13:11:59.396Z,12.97
2019-03-25T13:14:58.537Z,9.13
2019-03-25T13:17:58.052Z,6.63
2019-03-25T13:20:57.303Z,8.63
2019-03-25T13:23:56.957Z,7.70
2019-03-25T13:26:56.411Z,8.07
2019-03-25T13:29:55.841Z,7.10
2019-03-25T13:35:55.521Z,8.77
2019-03-25T13:38:54.830Z,10.70
2019-03-25T13:41:54.390Z,7.07
2019-03-25T13:44:55.643Z,8.70
2019-03-25T13:47:55.095Z,6.23
2019-03-25T13:50:54.560Z,6.60
2019-03-25T13:53:55.629Z,8.93
2019-03-25T13:56:58.949Z,8.27
2019-03-25T14:00:03.162Z,7.90
2019-03-25T14:02:59.895Z,4.67
2019-03-25T14:06:03.346Z,6.87
2019-03-25T14:09:03.275Z,8.23
2019-03-25T14:12:03.080Z,8.37
2019-03-25T14:15:02.478Z,10.50
2019-03-25T14:18:05.732Z,4.00
2019-03-25T14:21:08.974Z,2.80
2019-03-25T14:24:09.308Z,2.37
2019-03-25T14:27:09.159Z,1.00
2019-03-25T14:30:14.386Z,1.30
2019-03-25T14:33:10.452Z,1.90
2019-03-25T14:36:09.830Z,3.73
2019-03-25T14:39:09.897Z,4.30
2019-03-25T14:42:10.851Z,4.23
2019-03-25T14:45:14.452Z,2.00
2019-03-25T14:48:15.020Z,1.77
2019-03-25T14:51:14.710Z,2.20
2019-03-25T14:54:14.271Z,2.60
2019-03-25T14:57:13.784Z,1.63
2019-03-25T15:00:13.259Z,2.83
2019-03-25T15:03:13.585Z,2.93
2019-03-25T15:06:12.794Z,4.30
2019-03-25T15:09:12.144Z,4.00
2019-03-25T15:12:11.516Z,3.97
2019-03-25T15:15:10.901Z,5.43
2019-03-25T15:18:00.886Z,4.33
2019-03-25T15:21:00.547Z,5.70
2019-03-25T15:24:00.576Z,5.43
2019-03-25T15:27:00.266Z,6.00
2019-03-25T15:29:59.687Z,6.10
2019-03-25T15:32:58.970Z,5.10
2019-03-25T15:35:58.322Z,5.00
2019-03-25T15:38:57.890Z,4.80
2019-03-25T15:41:57.296Z,4.27
2019-03-25T15:44:57.259Z,1.97
2019-03-25T15:47:56.572Z,0.60
2019-03-25T15:50:56.561Z,2.27
2019-03-25T15:53:56.197Z,2.57
2019-03-25T15:56:55.760Z,1.47
2019-03-25T15:59:59.268Z,1.87
2019-03-25T16:03:02.459Z,2.00
2019-03-25T16:06:02.582Z,1.67
2019-03-25T16:09:02.971Z,2.00
2019-03-25T16:12:04.910Z,4.00
2019-03-25T16:15:04.227Z,3.40
2019-03-25T16:18:04.382Z,3.23
2019-03-25T16:21:03.706Z,2.83
2019-03-25T16:24:03.708Z,1.27
2019-03-25T16:27:02.985Z,2.10
2019-03-25T16:30:02.420Z,4.27
2019-03-25T16:33:01.589Z,5.20
2019-03-25T16:36:01.217Z,3.30
2019-03-25T16:39:00.496Z,5.20
2019-03-25T16:41:59.765Z,3.13
2019-03-25T16:44:59.296Z,2.03
2019-03-25T16:47:58.626Z,4.78
2019-03-25T16:50:58.063Z,7.60
2019-03-25T16:54:00.351Z,4.37
2019-03-25T16:56:58.999Z,3.22
2019-03-25T16:59:59.181Z,2.73
2019-03-25T17:02:58.455Z,2.80
2019-03-25T17:05:57.888Z,3.73
2019-03-25T17:08:58.135Z,2.50
2019-03-25T17:11:58.172Z,5.87
2019-03-25T17:14:57.505Z,6.20
2019-03-25T17:17:57.039Z,3.80
2019-03-25T17:20:56.272Z,4.80
2019-03-25T17:23:56.171Z,5.63
2019-03-25T17:26:55.525Z,4.60
2019-03-25T17:29:54.960Z,4.93
2019-03-25T17:32:54.763Z,5.70
2019-03-25T17:35:54.863Z,5.13
2019-03-25T17:38:54.856Z,7.97
2019-03-25T17:41:55.179Z,5.93
2019-03-25T17:44:55.547Z,5.83
2019-03-25T17:47:55.062Z,5.67
2019-03-25T17:50:56.567Z,5.33
2019-03-25T17:53:56.545Z,5.03
2019-03-25T17:56:56.109Z,5.60
2019-03-25T17:59:56.423Z,5.63
2019-03-25T18:02:56.141Z,7.73
2019-03-25T18:05:56.282Z,5.17
2019-03-25T18:08:56.340Z,10.70
2019-03-25T18:11:56.833Z,7.37
2019-03-25T18:14:56.788Z,7.70
2019-03-25T18:17:56.327Z,4.57
2019-03-25T18:24:18.191Z,6.40
2019-03-25T18:27:17.577Z,7.37
2019-03-25T18:30:16.790Z,7.23
2019-03-25T18:33:15.991Z,7.40
2019-03-25T18:36:20.446Z,6.13
2019-03-25T18:39:19.874Z,8.73
2019-03-25T18:42:19.962Z,7.47
2019-03-25T18:45:19.316Z,8.57
2019-03-25T18:48:18.734Z,7.30
2019-03-25T18:51:18.772Z,8.97
2019-03-25T18:54:20.260Z,8.10
2019-03-25T18:57:23.061Z,9.60
2019-03-25T19:00:23.450Z,7.30
2019-03-25T19:03:24.071Z,8.67
2019-03-25T19:06:27.314Z,9.53
2019-03-25T19:09:27.552Z,8.53
2019-03-25T19:12:26.961Z,11.40
2019-03-25T19:15:26.564Z,7.37
2019-03-25T19:18:30.020Z,8.87
2019-03-25T19:21:29.237Z,12.67
2019-03-25T19:24:32.710Z,7.83
2019-03-25T19:27:32.062Z,9.93
2019-03-25T19:30:31.481Z,8.00
2019-03-25T19:33:30.933Z,11.90
2019-03-25T19:36:30.413Z,9.10
2019-03-25T19:39:29.911Z,9.17
2019-03-25T19:42:30.114Z,9.57
2019-03-25T19:45:30.303Z,8.13
2019-03-25T19:48:30.433Z,9.87
2019-03-25T19:51:29.914Z,11.07
2019-03-25T19:54:29.569Z,10.07
2019-03-25T19:57:29.099Z,7.53
2019-03-25T20:00:28.594Z,14.47
2019-03-25T20:03:28.920Z,8.80
2019-03-25T20:06:29.121Z,8.17
2019-03-25T20:09:28.672Z,8.30
2019-03-25T20:12:28.066Z,8.43
2019-03-25T20:15:31.121Z,12.57
2019-03-25T20:18:29.519Z,11.47
2019-03-25T20:21:29.265Z,13.47
2019-03-25T20:24:28.488Z,9.27
2019-03-25T20:27:27.728Z,9.40
2019-03-25T20:30:27.161Z,11.23
2019-03-25T20:33:26.676Z,10.93
2019-03-25T20:36:26.055Z,7.57
2019-03-25T20:39:25.699Z,10.50
2019-03-25T20:42:25.915Z,8.97
2019-03-25T20:45:25.139Z,7.63
2019-03-25T20:48:24.768Z,9.40
2019-03-25T20:51:27.870Z,9.47
2019-03-25T20:54:32.371Z,7.97
2019-03-25T20:57:35.561Z,10.67
2019-03-25T21:00:34.986Z,9.67
2019-03-25T21:03:34.600Z,9.10
2019-03-25T21:06:37.962Z,10.90
2019-03-25T21:09:37.271Z,9.47
2019-03-25T21:12:38.617Z,13.07
2019-03-25T21:15:38.450Z,8.97
2019-03-25T21:18:38.585Z,9.93
2019-03-25T21:21:38.075Z,9.63
2019-03-25T21:24:37.385Z,10.10
2019-03-25T21:27:36.620Z,10.10
2019-03-25T21:30:47.338Z,9.33
2019-03-25T21:33:37.533Z,11.90
2019-03-25T21:36:36.999Z,9.37
2019-03-25T21:39:36.265Z,8.10
2019-03-25T21:42:35.602Z,11.83
2019-03-25T21:45:35.018Z,12.33
2019-03-25T21:48:34.477Z,8.83
2019-03-25T21:51:34.039Z,10.17
2019-03-25T21:54:34.283Z,13.73
2019-03-25T21:57:33.782Z,11.70
2019-03-25T22:00:33.963Z,13.87
2019-03-25T22:03:33.312Z,13.03
2019-03-25T22:06:32.597Z,13.43
2019-03-25T22:09:32.691Z,13.47
2019-03-25T22:12:32.223Z,6.60
2019-03-25T22:15:31.790Z,14.63
2019-03-25T22:18:31.131Z,15.43
2019-03-25T22:21:34.168Z,14.50
2019-03-25T22:24:33.630Z,12.27
2019-03-25T22:27:32.821Z,11.13
2019-03-25T22:30:31.969Z,13.03
2019-03-25T22:33:31.279Z,16.50
2019-03-25T22:36:30.488Z,13.60
2019-03-25T22:39:30.518Z,13.17
2019-03-25T22:42:30.017Z,14.47
2019-03-25T22:45:29.201Z,10.73
2019-03-25T22:48:28.476Z,11.63
2019-03-25T22:51:27.746Z,11.87
2019-03-25T22:54:27.491Z,11.50
2019-03-25T22:57:27.053Z,12.67
2019-03-25T23:00:28.710Z,17.07
2019-03-25T23:03:38.601Z,16.07
2019-03-25T23:06:29.730Z,13.03
2019-03-25T23:09:29.791Z,13.27
2019-03-25T23:12:29.254Z,12.73
2019-03-25T23:15:28.588Z,15.17
2019-03-25T23:18:28.103Z,13.40
2019-03-25T23:21:27.452Z,14.30
2019-03-25T23:24:26.825Z,15.57
2019-03-25T23:27:25.980Z,15.30
2019-03-25T23:30:26.098Z,18.23
2019-03-25T23:33:26.172Z,12.53
2019-03-25T23:36:25.230Z,15.53
2019-03-25T23:39:25.287Z,12.80
2019-03-25T23:42:24.769Z,13.90
2019-03-25T23:45:23.845Z,15.43
2019-03-25T23:48:23.053Z,14.10
2019-03-25T23:51:23.031Z,13.47
2019-03-25T23:54:23.017Z,11.67
2019-03-25T23:57:22.382Z,13.33
